createdAt,value
2018-01-19T00:00:08.409Z,1.90
2018-01-19T00:00:41.420Z,1.90
2018-01-19T00:01:15.102Z,1.90
2018-01-19T00:01:48.788Z,1.90
2018-01-19T00:02:22.461Z,1.90
2018-01-19T00:02:56.133Z,1.90
2018-01-19T00:03:30.566Z,1.90
2018-01-19T00:04:05.486Z,1.90
2018-01-19T00:04:39.158Z,1.90
2018-01-19T00:05:14.026Z,1.90
2018-01-19T00:05:47.719Z,1.90
2018-01-19T00:06:21.897Z,1.90
2018-01-19T00:06:55.590Z,2.00
2018-01-19T00:07:29.250Z,2.00
2018-01-19T00:08:03.069Z,2.00
2018-01-19T00:08:36.747Z,2.00
2018-01-19T00:09:10.804Z,2.00
2018-01-19T00:09:45.232Z,2.00
2018-01-19T00:10:19.871Z,1.90
2018-01-19T00:10:53.551Z,1.90
2018-01-19T00:11:27.250Z,2.00
2018-01-19T00:12:00.949Z,1.90
2018-01-19T00:12:34.726Z,2.00
2018-01-19T00:13:08.609Z,2.00
2018-01-19T00:13:42.039Z,1.90
2018-01-19T00:14:15.701Z,1.90
2018-01-19T00:14:49.382Z,1.90
2018-01-19T00:15:23.056Z,1.90
2018-01-19T00:15:56.733Z,1.90
2018-01-19T00:16:31.179Z,1.90
2018-01-19T00:17:04.893Z,1.90
2018-01-19T00:17:38.650Z,1.90
2018-01-19T00:18:12.130Z,1.90
2018-01-19T00:18:45.820Z,1.90
2018-01-19T00:19:19.510Z,1.90
2018-01-19T00:19:53.185Z,1.90
2018-01-19T00:20:26.846Z,1.90
2018-01-19T00:21:01.332Z,1.90
2018-01-19T00:21:34.994Z,1.90
2018-01-19T00:22:08.033Z,1.90
2018-01-19T00:22:43.805Z,1.90
2018-01-19T00:23:19.248Z,1.90
2018-01-19T00:23:52.909Z,1.90
2018-01-19T00:24:26.585Z,1.90
2018-01-19T00:25:01.019Z,2.00
2018-01-19T00:25:34.690Z,1.90
2018-01-19T00:26:08.358Z,1.90
2018-01-19T00:26:42.795Z,2.00
2018-01-19T00:27:16.506Z,1.90
2018-01-19T00:27:50.205Z,1.90
2018-01-19T00:28:23.877Z,1.90
2018-01-19T00:28:58.263Z,2.00
2018-01-19T00:29:31.923Z,1.90
2018-01-19T00:30:05.598Z,1.90
2018-01-19T00:30:40.598Z,1.90
2018-01-19T00:31:14.281Z,1.90
2018-01-19T00:31:47.953Z,1.90
2018-01-19T00:32:21.718Z,1.90
2018-01-19T00:32:56.215Z,1.90
2018-01-19T00:33:30.034Z,1.90
2018-01-19T00:34:03.829Z,2.00
2018-01-19T00:34:38.411Z,1.90
2018-01-19T00:35:12.917Z,1.90
2018-01-19T00:35:46.604Z,1.90
2018-01-19T00:36:20.272Z,1.90
2018-01-19T00:36:53.939Z,1.90
2018-01-19T00:37:27.641Z,1.90
2018-01-19T00:38:01.338Z,1.90
2018-01-19T00:38:35.022Z,1.90
2018-01-19T00:39:08.709Z,1.90
2018-01-19T00:39:42.449Z,1.90
2018-01-19T00:40:16.899Z,1.90
2018-01-19T00:40:50.614Z,1.90
2018-01-19T00:41:25.646Z,1.90
2018-01-19T00:41:59.373Z,1.90
2018-01-19T00:42:33.097Z,1.90
2018-01-19T00:43:06.764Z,1.90
2018-01-19T00:43:40.445Z,1.90
2018-01-19T00:44:14.886Z,1.90
2018-01-19T00:44:48.570Z,1.90
2018-01-19T00:45:22.228Z,1.90
2018-01-19T00:45:56.657Z,1.90
2018-01-19T00:46:30.313Z,1.90
2018-01-19T00:47:04.741Z,1.90
2018-01-19T00:47:38.435Z,1.90
2018-01-19T00:48:12.110Z,1.90
2018-01-19T00:48:46.545Z,1.90
2018-01-19T00:49:20.218Z,1.90
2018-01-19T00:49:53.929Z,1.90
2018-01-19T00:50:27.598Z,1.90
2018-01-19T00:51:01.310Z,1.90
2018-01-19T00:51:34.672Z,1.90
2018-01-19T00:52:09.097Z,1.90
2018-01-19T00:52:42.794Z,1.90
2018-01-19T00:53:16.473Z,1.90
2018-01-19T00:53:50.137Z,1.90
2018-01-19T00:54:24.569Z,1.90
2018-01-19T00:54:58.246Z,1.90
2018-01-19T00:55:31.908Z,1.90
2018-01-19T00:56:05.560Z,1.90
2018-01-19T00:56:39.226Z,1.90
2018-01-19T00:57:12.903Z,1.90
2018-01-19T00:57:46.269Z,1.90
2018-01-19T00:58:20.710Z,1.90
2018-01-19T00:58:54.369Z,1.90
2018-01-19T00:59:28.793Z,1.90
2018-01-19T01:00:02.466Z,1.90
2018-01-19T01:00:36.905Z,1.90
2018-01-19T01:01:10.561Z,1.90
2018-01-19T01:01:45.005Z,1.90
2018-01-19T01:02:18.666Z,1.90
2018-01-19T01:02:52.382Z,1.90
2018-01-19T01:03:26.040Z,1.90
2018-01-19T01:03:59.729Z,1.90
2018-01-19T01:04:34.192Z,1.90
2018-01-19T01:05:07.844Z,1.80
2018-01-19T01:05:41.508Z,1.80
2018-01-19T01:06:15.950Z,1.80
2018-01-19T01:06:49.655Z,1.80
2018-01-19T01:07:23.321Z,1.80
2018-01-19T01:07:57.015Z,1.80
2018-01-19T01:08:30.674Z,1.90
2018-01-19T01:09:05.762Z,1.90
2018-01-19T01:09:39.407Z,1.90
2018-01-19T01:10:13.074Z,1.90
2018-01-19T01:10:47.509Z,1.90
2018-01-19T01:11:21.164Z,1.90
2018-01-19T01:11:54.826Z,1.90
2018-01-19T01:12:28.502Z,1.90
2018-01-19T01:13:02.178Z,1.90
2018-01-19T01:13:35.841Z,1.90
2018-01-19T01:14:09.525Z,1.90
2018-01-19T01:14:43.206Z,1.90
2018-01-19T01:15:17.646Z,1.90
2018-01-19T01:15:51.298Z,1.90
2018-01-19T01:16:24.967Z,1.90
2018-01-19T01:16:58.634Z,1.90
2018-01-19T01:17:32.308Z,1.90
2018-01-19T01:18:06.005Z,1.90
2018-01-19T01:18:39.339Z,1.90
2018-01-19T01:19:13.005Z,1.90
2018-01-19T01:19:46.678Z,1.90
2018-01-19T01:20:20.351Z,1.90
2018-01-19T01:20:54.002Z,1.90
2018-01-19T01:21:28.438Z,1.90
2018-01-19T01:22:02.098Z,1.90
2018-01-19T01:22:36.525Z,1.90
2018-01-19T01:23:10.217Z,1.90
2018-01-19T01:23:43.882Z,1.90
2018-01-19T01:24:18.328Z,1.90
2018-01-19T01:24:51.989Z,1.90
2018-01-19T01:25:25.669Z,1.90
2018-01-19T01:25:59.354Z,1.90
2018-01-19T01:26:33.785Z,1.90
2018-01-19T01:27:07.451Z,1.90
2018-01-19T01:27:41.882Z,1.90
2018-01-19T01:28:15.577Z,1.90
2018-01-19T01:28:49.236Z,1.90
2018-01-19T01:29:23.677Z,1.90
2018-01-19T01:29:57.334Z,1.90
2018-01-19T01:30:30.990Z,1.90
2018-01-19T01:31:04.667Z,2.00
2018-01-19T01:31:38.335Z,2.00
2018-01-19T01:32:12.028Z,2.00
2018-01-19T01:32:45.698Z,2.00
2018-01-19T01:33:19.406Z,1.90
2018-01-19T01:33:53.079Z,2.00
2018-01-19T01:34:26.751Z,2.00
2018-01-19T01:35:01.189Z,2.00
2018-01-19T01:35:34.850Z,2.00
2018-01-19T01:36:09.270Z,2.00
2018-01-19T01:36:42.929Z,2.00
2018-01-19T01:37:16.586Z,2.00
2018-01-19T01:37:50.242Z,2.00
2018-01-19T01:38:23.942Z,2.00
2018-01-19T01:38:57.600Z,2.00
2018-01-19T01:39:32.029Z,2.00
2018-01-19T01:40:05.719Z,2.00
2018-01-19T01:40:39.387Z,2.00
2018-01-19T01:41:13.046Z,2.00
2018-01-19T01:41:46.716Z,2.00
2018-01-19T01:42:20.199Z,2.00
2018-01-19T01:42:53.861Z,2.10
2018-01-19T01:43:27.555Z,2.00
2018-01-19T01:44:01.233Z,2.00
2018-01-19T01:44:35.664Z,2.00
2018-01-19T01:45:09.338Z,2.00
2018-01-19T01:45:42.663Z,2.00
2018-01-19T01:46:16.339Z,2.00
2018-01-19T01:46:50.011Z,2.00
2018-01-19T01:47:23.678Z,2.00
2018-01-19T01:47:57.355Z,2.00
2018-01-19T01:48:31.812Z,2.00
2018-01-19T01:49:11.416Z,1.90
2018-01-19T01:49:45.076Z,1.90
2018-01-19T01:50:18.754Z,1.90
2018-01-19T01:50:52.422Z,1.90
2018-01-19T01:51:26.096Z,1.90
2018-01-19T01:51:59.766Z,1.90
2018-01-19T01:52:33.423Z,1.90
2018-01-19T01:53:07.151Z,1.90
2018-01-19T01:53:40.834Z,1.90
2018-01-19T01:54:14.497Z,1.90
2018-01-19T01:54:48.929Z,1.90
2018-01-19T01:55:22.593Z,1.90
2018-01-19T01:55:56.246Z,1.90
2018-01-19T01:56:29.915Z,1.90
2018-01-19T01:57:03.578Z,1.90
2018-01-19T01:57:38.006Z,1.90
2018-01-19T01:58:11.489Z,1.90
2018-01-19T01:58:45.187Z,1.90
2018-01-19T01:59:18.854Z,1.90
2018-01-19T01:59:53.283Z,1.90
2018-01-19T02:00:26.945Z,1.90
2018-01-19T02:01:01.379Z,2.00
2018-01-19T02:01:35.052Z,1.90
2018-01-19T02:02:09.683Z,1.90
2018-01-19T02:02:43.346Z,1.90
2018-01-19T02:03:17.783Z,2.00
2018-01-19T02:03:51.482Z,1.90
2018-01-19T02:04:24.826Z,2.00
2018-01-19T02:04:59.260Z,2.00
2018-01-19T02:05:32.917Z,1.90
2018-01-19T02:06:06.582Z,2.00
2018-01-19T02:06:40.245Z,2.00
2018-01-19T02:07:13.919Z,2.00
2018-01-19T02:07:47.646Z,2.00
2018-01-19T02:08:21.312Z,2.00
2018-01-19T02:08:54.989Z,1.90
2018-01-19T02:09:28.645Z,2.00
2018-01-19T02:10:03.088Z,2.00
2018-01-19T02:10:36.741Z,2.00
2018-01-19T02:11:11.166Z,2.00
2018-01-19T02:11:44.825Z,2.00
2018-01-19T02:12:19.249Z,2.00
2018-01-19T02:12:53.681Z,2.00
2018-01-19T02:13:27.341Z,2.00
2018-01-19T02:14:01.838Z,2.00
2018-01-19T02:14:36.262Z,2.00
2018-01-19T02:15:09.917Z,2.00
2018-01-19T02:15:43.573Z,2.00
2018-01-19T02:16:17.251Z,2.00
2018-01-19T02:16:50.913Z,2.00
2018-01-19T02:17:25.348Z,1.90
2018-01-19T02:17:59.010Z,1.90
2018-01-19T02:18:33.450Z,1.90
2018-01-19T02:19:07.140Z,1.90
2018-01-19T02:19:40.487Z,1.90
2018-01-19T02:20:14.272Z,1.90
2018-01-19T02:20:48.702Z,1.90
2018-01-19T02:21:22.366Z,1.90
2018-01-19T02:21:56.795Z,1.90
2018-01-19T02:22:30.451Z,1.80
2018-01-19T02:23:05.610Z,1.80
2018-01-19T02:23:39.286Z,1.80
2018-01-19T02:24:13.765Z,1.80
2018-01-19T02:24:47.427Z,1.80
2018-01-19T02:25:21.087Z,1.80
2018-01-19T02:25:54.766Z,1.70
2018-01-19T02:26:29.200Z,1.70
2018-01-19T02:27:02.853Z,1.70
2018-01-19T02:27:37.288Z,1.70
2018-01-19T02:28:10.954Z,1.70
2018-01-19T02:28:45.389Z,1.70
2018-01-19T02:29:19.150Z,1.70
2018-01-19T02:29:53.599Z,1.70
2018-01-19T02:30:27.294Z,1.70
2018-01-19T02:31:00.990Z,1.70
2018-01-19T02:31:34.659Z,1.70
2018-01-19T02:32:08.328Z,1.70
2018-01-19T02:32:41.999Z,1.70
2018-01-19T02:33:16.423Z,1.70
2018-01-19T02:33:50.107Z,1.70
2018-01-19T02:34:24.241Z,1.70
2018-01-19T02:34:57.922Z,1.70
2018-01-19T02:35:31.585Z,1.70
2018-01-19T02:36:06.033Z,1.70
2018-01-19T02:36:39.691Z,1.70
2018-01-19T02:37:13.355Z,1.70
2018-01-19T02:37:47.810Z,1.70
2018-01-19T02:38:21.480Z,1.70
2018-01-19T02:38:55.161Z,1.70
2018-01-19T02:39:28.854Z,1.70
2018-01-19T02:40:02.524Z,1.70
2018-01-19T02:40:36.954Z,1.70
2018-01-19T02:41:10.631Z,1.70
2018-01-19T02:41:44.874Z,1.80
2018-01-19T02:42:18.359Z,1.70
2018-01-19T02:42:52.021Z,1.80
2018-01-19T02:43:25.697Z,1.80
2018-01-19T02:44:00.146Z,1.80
2018-01-19T02:44:33.833Z,1.80
2018-01-19T02:45:07.498Z,1.70
2018-01-19T02:45:41.178Z,1.80
2018-01-19T02:46:15.613Z,1.80
2018-01-19T02:46:49.295Z,1.80
2018-01-19T02:47:22.970Z,1.80
2018-01-19T02:47:57.402Z,1.80
2018-01-19T02:48:31.076Z,1.80
2018-01-19T02:49:04.750Z,1.80
2018-01-19T02:49:39.194Z,1.80
2018-01-19T02:50:12.852Z,1.80
2018-01-19T02:50:47.276Z,1.80
2018-01-19T02:51:20.941Z,1.80
2018-01-19T02:51:55.392Z,1.80
2018-01-19T02:52:29.080Z,1.80
2018-01-19T02:53:02.746Z,1.80
2018-01-19T02:53:36.410Z,1.80
2018-01-19T02:54:10.826Z,1.80
2018-01-19T02:54:45.296Z,1.80
2018-01-19T02:55:18.962Z,1.80
2018-01-19T02:55:52.613Z,1.80
2018-01-19T02:56:27.035Z,1.80
2018-01-19T02:57:00.710Z,1.80
2018-01-19T02:57:35.146Z,1.80
2018-01-19T02:58:08.807Z,1.80
2018-01-19T02:58:43.237Z,1.80
2018-01-19T02:59:16.929Z,1.80
2018-01-19T02:59:50.627Z,1.80
2018-01-19T03:00:24.296Z,1.80
2018-01-19T03:00:57.958Z,1.80
2018-01-19T03:01:31.622Z,1.80
2018-01-19T03:02:05.282Z,1.80
2018-01-19T03:02:38.939Z,1.80
2018-01-19T03:03:13.365Z,1.70
2018-01-19T03:03:47.035Z,1.70
2018-01-19T03:04:21.469Z,1.70
2018-01-19T03:04:55.129Z,1.70
2018-01-19T03:05:29.556Z,1.80
2018-01-19T03:06:03.222Z,1.70
2018-01-19T03:06:37.652Z,1.80
2018-01-19T03:07:11.313Z,1.70
2018-01-19T03:07:45.759Z,1.80
2018-01-19T03:08:19.426Z,1.80
2018-01-19T03:08:53.299Z,1.80
2018-01-19T03:09:27.726Z,1.80
2018-01-19T03:10:01.415Z,1.80
2018-01-19T03:10:35.845Z,1.80
2018-01-19T03:11:09.513Z,1.80
2018-01-19T03:11:43.955Z,1.80
2018-01-19T03:12:17.624Z,1.80
2018-01-19T03:12:51.286Z,1.80
2018-01-19T03:13:24.954Z,1.80
2018-01-19T03:13:58.620Z,1.80
2018-01-19T03:14:32.278Z,1.80
2018-01-19T03:15:05.973Z,1.80
2018-01-19T03:15:39.643Z,1.80
2018-01-19T03:16:14.065Z,1.80
2018-01-19T03:16:47.749Z,1.80
2018-01-19T03:17:21.418Z,1.80
2018-01-19T03:17:55.861Z,1.80
2018-01-19T03:18:29.526Z,1.80
2018-01-19T03:19:04.137Z,1.80
2018-01-19T03:19:38.566Z,1.80
2018-01-19T03:20:12.048Z,1.80
2018-01-19T03:20:45.704Z,1.90
2018-01-19T03:21:19.026Z,1.80
2018-01-19T03:21:52.681Z,1.90
2018-01-19T03:22:27.122Z,1.80
2018-01-19T03:23:00.778Z,1.80
2018-01-19T03:23:35.210Z,1.90
2018-01-19T03:24:08.875Z,1.90
2018-01-19T03:24:43.312Z,1.90
2018-01-19T03:25:16.993Z,1.90
2018-01-19T03:25:50.659Z,1.90
2018-01-19T03:26:25.100Z,1.90
2018-01-19T03:26:58.789Z,1.90
2018-01-19T03:27:32.462Z,1.90
2018-01-19T03:28:06.122Z,1.90
2018-01-19T03:28:39.794Z,1.90
2018-01-19T03:29:13.455Z,1.90
2018-01-19T03:29:47.133Z,1.90
2018-01-19T03:30:20.822Z,1.90
2018-01-19T03:30:54.503Z,1.90
2018-01-19T03:31:28.164Z,1.90
2018-01-19T03:32:02.598Z,1.90
2018-01-19T03:32:36.270Z,1.90
2018-01-19T03:33:10.705Z,1.90
2018-01-19T03:33:44.382Z,1.90
2018-01-19T03:34:18.043Z,1.90
2018-01-19T03:34:52.461Z,1.90
2018-01-19T03:35:26.143Z,1.90
2018-01-19T03:35:59.809Z,1.90
2018-01-19T03:36:33.472Z,1.90
2018-01-19T03:37:07.134Z,1.90
2018-01-19T03:37:41.559Z,1.90
2018-01-19T03:38:15.270Z,1.90
2018-01-19T03:38:48.593Z,1.90
2018-01-19T03:39:22.256Z,1.90
2018-01-19T03:39:55.916Z,1.90
2018-01-19T03:40:29.605Z,1.90
2018-01-19T03:41:03.338Z,1.90
2018-01-19T03:41:37.033Z,1.90
2018-01-19T03:42:10.704Z,1.90
2018-01-19T03:42:44.357Z,1.90
2018-01-19T03:43:18.015Z,1.90
2018-01-19T03:43:52.445Z,1.90
2018-01-19T03:44:26.104Z,1.90
2018-01-19T03:44:59.764Z,1.90
2018-01-19T03:45:33.458Z,1.90
2018-01-19T03:46:07.123Z,1.90
2018-01-19T03:46:40.785Z,2.00
2018-01-19T03:47:14.441Z,1.90
2018-01-19T03:47:48.098Z,1.90
2018-01-19T03:48:21.760Z,1.90
2018-01-19T03:48:55.246Z,1.90
2018-01-19T03:49:28.902Z,1.90
2018-01-19T03:50:02.577Z,1.90
2018-01-19T03:50:36.283Z,1.90
2018-01-19T03:51:09.942Z,1.90
2018-01-19T03:51:43.606Z,1.90
2018-01-19T03:52:17.320Z,1.90
2018-01-19T03:52:50.998Z,1.90
2018-01-19T03:53:24.668Z,1.90
2018-01-19T03:53:58.348Z,1.90
2018-01-19T03:54:32.016Z,1.90
2018-01-19T03:55:06.450Z,1.90
2018-01-19T03:55:39.972Z,1.90
2018-01-19T03:56:13.657Z,1.90
2018-01-19T03:56:47.326Z,1.90
2018-01-19T03:57:20.990Z,1.90
2018-01-19T03:57:55.436Z,1.90
2018-01-19T03:58:28.926Z,1.90
2018-01-19T03:59:02.625Z,1.90
2018-01-19T03:59:36.299Z,1.90
2018-01-19T04:00:09.322Z,1.90
2018-01-19T04:00:43.780Z,1.80
2018-01-19T04:01:17.434Z,1.80
2018-01-19T04:01:51.854Z,1.80
2018-01-19T04:02:25.516Z,1.80
2018-01-19T04:02:59.947Z,1.80
2018-01-19T04:03:33.601Z,1.80
2018-01-19T04:04:07.263Z,1.80
2018-01-19T04:04:40.938Z,1.80
2018-01-19T04:05:14.596Z,1.80
2018-01-19T04:05:48.294Z,1.80
2018-01-19T04:06:21.967Z,1.80
2018-01-19T04:06:56.120Z,1.80
2018-01-19T04:07:29.777Z,1.80
2018-01-19T04:08:03.436Z,1.80
2018-01-19T04:08:37.873Z,1.80
2018-01-19T04:09:11.650Z,1.80
2018-01-19T04:09:46.093Z,1.80
2018-01-19T04:10:19.764Z,1.80
2018-01-19T04:10:53.476Z,1.80
2018-01-19T04:11:27.141Z,1.80
2018-01-19T04:12:00.810Z,1.80
2018-01-19T04:12:35.241Z,1.80
2018-01-19T04:13:08.912Z,1.80
2018-01-19T04:13:43.358Z,1.80
2018-01-19T04:14:17.024Z,1.80
2018-01-19T04:14:50.693Z,1.80
2018-01-19T04:15:25.553Z,1.80
2018-01-19T04:15:59.237Z,1.80
2018-01-19T04:16:32.918Z,1.80
2018-01-19T04:17:06.586Z,1.80
2018-01-19T04:17:41.043Z,1.80
2018-01-19T04:18:14.714Z,1.80
2018-01-19T04:18:48.200Z,1.80
2018-01-19T04:19:21.852Z,1.80
2018-01-19T04:19:56.310Z,1.80
2018-01-19T04:20:29.971Z,1.80
2018-01-19T04:21:03.654Z,1.80
2018-01-19T04:21:37.324Z,1.80
2018-01-19T04:22:11.760Z,1.80
2018-01-19T04:22:45.446Z,1.80
2018-01-19T04:23:18.935Z,1.80
2018-01-19T04:23:52.605Z,1.80
2018-01-19T04:24:26.276Z,1.80
2018-01-19T04:24:59.939Z,1.80
2018-01-19T04:25:33.610Z,1.80
2018-01-19T04:26:07.302Z,1.80
2018-01-19T04:26:40.787Z,1.80
2018-01-19T04:27:14.652Z,1.80
2018-01-19T04:27:48.310Z,1.80
2018-01-19T04:28:22.238Z,1.70
2018-01-19T04:28:55.889Z,1.80
2018-01-19T04:29:29.392Z,1.80
2018-01-19T04:30:03.506Z,1.70
2018-01-19T04:30:37.161Z,1.70
2018-01-19T04:31:10.843Z,1.70
2018-01-19T04:31:44.515Z,1.70
2018-01-19T04:32:18.188Z,1.70
2018-01-19T04:32:51.854Z,1.70
2018-01-19T04:33:26.282Z,1.70
2018-01-19T04:33:59.958Z,1.70
2018-01-19T04:34:33.435Z,1.70
2018-01-19T04:35:07.125Z,1.70
2018-01-19T04:35:41.561Z,1.70
2018-01-19T04:36:15.246Z,1.70
2018-01-19T04:36:48.912Z,1.70
2018-01-19T04:37:22.565Z,1.70
2018-01-19T04:37:56.222Z,1.70
2018-01-19T04:38:29.883Z,1.70
2018-01-19T04:39:03.351Z,1.70
2018-01-19T04:39:37.597Z,1.70
2018-01-19T04:40:11.071Z,1.60
2018-01-19T04:40:44.546Z,1.60
2018-01-19T04:41:18.251Z,1.60
2018-01-19T04:41:51.916Z,1.60
2018-01-19T04:42:26.357Z,1.60
2018-01-19T04:43:00.036Z,1.60
2018-01-19T04:43:33.697Z,1.60
2018-01-19T04:44:08.135Z,1.60
2018-01-19T04:44:41.789Z,1.60
2018-01-19T04:45:16.210Z,1.50
2018-01-19T04:45:49.877Z,1.50
2018-01-19T04:46:24.357Z,1.50
2018-01-19T04:46:58.018Z,1.50
2018-01-19T04:47:31.680Z,1.50
2018-01-19T04:48:05.368Z,1.50
2018-01-19T04:48:39.040Z,1.50
2018-01-19T04:49:12.370Z,1.50
2018-01-19T04:49:46.172Z,1.50
2018-01-19T04:50:21.078Z,1.50
2018-01-19T04:50:54.742Z,1.50
2018-01-19T04:51:29.194Z,1.50
2018-01-19T04:52:02.903Z,1.50
2018-01-19T04:52:36.761Z,1.50
2018-01-19T04:53:10.421Z,1.50
2018-01-19T04:53:44.532Z,1.50
2018-01-19T04:54:18.191Z,1.50
2018-01-19T04:54:51.863Z,1.50
2018-01-19T04:55:25.515Z,1.50
2018-01-19T04:55:59.001Z,1.50
2018-01-19T04:56:32.677Z,1.50
2018-01-19T04:57:06.154Z,1.50
2018-01-19T04:57:39.641Z,1.50
2018-01-19T04:58:13.110Z,1.60
2018-01-19T04:58:47.538Z,1.50
2018-01-19T04:59:21.210Z,1.50
2018-01-19T04:59:55.645Z,1.60
2018-01-19T05:00:29.306Z,1.50
2018-01-19T05:01:03.745Z,1.50
2018-01-19T05:01:37.434Z,1.50
2018-01-19T05:02:11.099Z,1.50
2018-01-19T05:02:44.782Z,1.50
2018-01-19T05:03:19.211Z,1.50
2018-01-19T05:03:52.868Z,1.50
2018-01-19T05:04:26.516Z,1.60
2018-01-19T05:05:00.185Z,1.50
2018-01-19T05:05:33.843Z,1.60
2018-01-19T05:06:08.293Z,1.50
2018-01-19T05:06:42.165Z,1.50
2018-01-19T05:07:15.823Z,1.50
2018-01-19T05:07:49.485Z,1.50
2018-01-19T05:08:23.149Z,1.50
2018-01-19T05:08:56.834Z,1.50
2018-01-19T05:09:30.489Z,1.50
2018-01-19T05:10:04.906Z,1.50
2018-01-19T05:10:39.339Z,1.50
2018-01-19T05:11:12.994Z,1.50
2018-01-19T05:11:47.454Z,1.50
2018-01-19T05:12:21.149Z,1.50
2018-01-19T05:12:54.816Z,1.50
2018-01-19T05:13:28.494Z,1.50
2018-01-19T05:14:02.161Z,1.50
2018-01-19T05:14:36.607Z,1.50
2018-01-19T05:15:10.268Z,1.50
2018-01-19T05:15:43.945Z,1.50
2018-01-19T05:16:18.387Z,1.50
2018-01-19T05:16:52.078Z,1.50
2018-01-19T05:17:25.736Z,1.50
2018-01-19T05:18:00.175Z,1.50
2018-01-19T05:18:33.837Z,1.50
2018-01-19T05:19:08.270Z,1.50
2018-01-19T05:19:41.931Z,1.50
2018-01-19T05:20:16.367Z,1.50
2018-01-19T05:20:50.021Z,1.50
2018-01-19T05:21:24.465Z,1.50
2018-01-19T05:21:57.830Z,1.50
2018-01-19T05:22:31.809Z,1.50
2018-01-19T05:23:06.253Z,1.50
2018-01-19T05:23:39.914Z,1.50
2018-01-19T05:24:14.341Z,1.50
2018-01-19T05:24:48.034Z,1.50
2018-01-19T05:25:21.697Z,1.50
2018-01-19T05:25:56.139Z,1.50
2018-01-19T05:26:29.816Z,1.50
2018-01-19T05:27:03.550Z,1.50
2018-01-19T05:27:37.213Z,1.50
2018-01-19T05:28:10.902Z,1.50
2018-01-19T05:28:44.574Z,1.50
2018-01-19T05:29:18.265Z,1.50
2018-01-19T05:29:51.922Z,1.50
2018-01-19T05:30:25.577Z,1.60
2018-01-19T05:30:59.239Z,1.50
2018-01-19T05:31:32.906Z,1.50
2018-01-19T05:32:07.371Z,1.50
2018-01-19T05:32:40.874Z,1.50
2018-01-19T05:33:15.313Z,1.50
2018-01-19T05:33:48.975Z,1.50
2018-01-19T05:34:22.635Z,1.50
2018-01-19T05:34:56.308Z,1.50
2018-01-19T05:35:30.045Z,1.50
2018-01-19T05:36:03.707Z,1.50
2018-01-19T05:36:37.376Z,1.50
2018-01-19T05:37:11.085Z,1.50
2018-01-19T05:37:44.419Z,1.50
2018-01-19T05:38:18.074Z,1.50
2018-01-19T05:38:51.209Z,1.50
2018-01-19T05:39:24.876Z,1.50
2018-01-19T05:39:58.529Z,1.50
2018-01-19T05:40:32.194Z,1.50
2018-01-19T05:41:05.856Z,1.40
2018-01-19T05:41:39.513Z,1.40
2018-01-19T05:42:13.974Z,1.40
2018-01-19T05:42:47.642Z,1.40
2018-01-19T05:43:21.304Z,1.40
2018-01-19T05:43:55.734Z,1.40
2018-01-19T05:44:29.397Z,1.40
2018-01-19T05:45:03.240Z,1.40
2018-01-19T05:45:36.906Z,1.40
2018-01-19T05:46:10.567Z,1.40
2018-01-19T05:46:45.001Z,1.40
2018-01-19T05:47:18.695Z,1.40
2018-01-19T05:47:52.042Z,1.40
2018-01-19T05:48:26.485Z,1.40
2018-01-19T05:49:00.177Z,1.30
2018-01-19T05:49:33.837Z,1.40
2018-01-19T05:50:07.938Z,1.40
2018-01-19T05:50:42.371Z,1.40
2018-01-19T05:51:16.045Z,1.30
2018-01-19T05:51:49.713Z,1.30
2018-01-19T05:52:23.391Z,1.30
2018-01-19T05:52:57.050Z,1.30
2018-01-19T05:53:30.713Z,1.30
2018-01-19T05:54:04.369Z,1.30
2018-01-19T05:54:38.017Z,1.30
2018-01-19T05:55:11.692Z,1.30
2018-01-19T05:55:45.396Z,1.30
2018-01-19T05:56:20.002Z,1.30
2018-01-19T05:56:53.681Z,1.30
2018-01-19T05:57:27.378Z,1.30
2018-01-19T05:58:01.066Z,1.30
2018-01-19T05:58:34.742Z,1.30
2018-01-19T05:59:08.397Z,1.30
2018-01-19T05:59:42.834Z,1.30
2018-01-19T06:00:16.499Z,1.30
2018-01-19T06:00:51.015Z,1.30
2018-01-19T06:01:25.438Z,1.30
2018-01-19T06:01:59.126Z,1.20
2018-01-19T06:02:32.824Z,1.30
2018-01-19T06:03:06.478Z,1.20
2018-01-19T06:03:40.130Z,1.20
2018-01-19T06:04:13.791Z,1.20
2018-01-19T06:04:47.446Z,1.20
2018-01-19T06:05:21.938Z,1.20
2018-01-19T06:05:55.746Z,1.20
2018-01-19T06:06:29.405Z,1.20
2018-01-19T06:07:03.069Z,1.20
2018-01-19T06:07:36.774Z,1.20
2018-01-19T06:08:10.446Z,1.20
2018-01-19T06:08:44.113Z,1.20
2018-01-19T06:09:18.554Z,1.10
2018-01-19T06:09:52.217Z,1.10
2018-01-19T06:10:25.882Z,1.10
2018-01-19T06:10:59.552Z,1.10
2018-01-19T06:11:33.248Z,1.10
2018-01-19T06:12:07.082Z,1.10
2018-01-19T06:12:40.770Z,1.10
2018-01-19T06:13:14.427Z,1.00
2018-01-19T06:13:48.081Z,1.00
2018-01-19T06:14:21.746Z,1.00
2018-01-19T06:14:55.417Z,1.00
2018-01-19T06:15:29.850Z,1.00
2018-01-19T06:16:03.521Z,1.00
2018-01-19T06:16:37.185Z,1.00
2018-01-19T06:17:10.843Z,1.00
2018-01-19T06:17:44.590Z,1.00
2018-01-19T06:18:18.234Z,1.00
2018-01-19T06:18:51.894Z,1.00
2018-01-19T06:19:25.562Z,1.00
2018-01-19T06:19:59.240Z,1.00
2018-01-19T06:20:33.678Z,1.00
2018-01-19T06:21:07.345Z,1.00
2018-01-19T06:21:41.030Z,1.00
2018-01-19T06:22:14.705Z,1.00
2018-01-19T06:22:49.159Z,1.00
2018-01-19T06:23:22.830Z,0.90
2018-01-19T06:23:56.485Z,1.00
2018-01-19T06:24:30.926Z,0.90
2018-01-19T06:25:04.270Z,0.90
2018-01-19T06:25:37.927Z,0.90
2018-01-19T06:26:11.609Z,0.90
2018-01-19T06:26:45.267Z,0.90
2018-01-19T06:27:18.929Z,0.90
2018-01-19T06:27:52.636Z,0.90
2018-01-19T06:28:27.069Z,0.80
2018-01-19T06:29:00.737Z,0.80
2018-01-19T06:29:35.334Z,0.80
2018-01-19T06:30:09.775Z,0.80
2018-01-19T06:30:43.451Z,0.80
2018-01-19T06:31:17.133Z,0.80
2018-01-19T06:31:51.574Z,0.80
2018-01-19T06:32:24.893Z,0.80
2018-01-19T06:32:58.592Z,0.80
2018-01-19T06:33:32.258Z,0.80
2018-01-19T06:34:05.918Z,0.70
2018-01-19T06:34:39.584Z,0.70
2018-01-19T06:35:13.274Z,0.70
2018-01-19T06:35:46.949Z,0.70
2018-01-19T06:36:21.397Z,0.70
2018-01-19T06:36:55.062Z,0.70
2018-01-19T06:37:28.728Z,0.70
2018-01-19T06:38:02.438Z,0.70
2018-01-19T06:38:36.098Z,0.70
2018-01-19T06:39:09.758Z,0.70
2018-01-19T06:39:43.423Z,0.70
2018-01-19T06:40:17.101Z,0.70
2018-01-19T06:40:50.789Z,0.70
2018-01-19T06:41:24.487Z,0.80
2018-01-19T06:41:58.155Z,0.70
2018-01-19T06:42:32.394Z,0.80
2018-01-19T06:43:06.097Z,0.80
2018-01-19T06:43:39.773Z,0.80
2018-01-19T06:44:13.436Z,0.80
2018-01-19T06:44:47.094Z,0.80
2018-01-19T06:45:21.533Z,0.90
2018-01-19T06:45:55.963Z,0.90
2018-01-19T06:46:29.633Z,0.90
2018-01-19T06:47:03.291Z,0.90
2018-01-19T06:47:36.946Z,0.90
2018-01-19T06:48:10.634Z,0.90
2018-01-19T06:48:44.310Z,1.00
2018-01-19T06:49:17.798Z,1.00
2018-01-19T06:49:51.286Z,1.00
2018-01-19T06:50:24.965Z,1.00
2018-01-19T06:50:58.637Z,1.00
2018-01-19T06:51:32.318Z,1.00
2018-01-19T06:52:06.765Z,1.10
2018-01-19T06:52:40.422Z,1.10
2018-01-19T06:53:14.887Z,1.10
2018-01-19T06:53:48.543Z,1.10
2018-01-19T06:54:22.207Z,1.10
2018-01-19T06:54:56.643Z,1.20
2018-01-19T06:55:30.134Z,1.10
2018-01-19T06:56:03.785Z,1.20
2018-01-19T06:56:38.047Z,1.20
2018-01-19T06:57:11.715Z,1.20
2018-01-19T06:57:46.210Z,1.20
2018-01-19T06:58:19.906Z,1.20
2018-01-19T06:58:53.394Z,1.20
2018-01-19T06:59:26.886Z,1.30
2018-01-19T07:00:00.546Z,1.30
2018-01-19T07:00:34.226Z,1.30
2018-01-19T07:01:07.900Z,1.30
2018-01-19T07:01:41.574Z,1.30
2018-01-19T07:02:15.054Z,1.30
2018-01-19T07:02:48.549Z,1.30
2018-01-19T07:03:22.248Z,1.30
2018-01-19T07:03:56.811Z,1.30
2018-01-19T07:04:30.470Z,1.30
2018-01-19T07:05:04.182Z,1.30
2018-01-19T07:05:37.849Z,1.30
2018-01-19T07:06:11.523Z,1.40
2018-01-19T07:06:45.956Z,1.40
2018-01-19T07:07:19.626Z,1.30
2018-01-19T07:07:54.096Z,1.40
2018-01-19T07:08:27.959Z,1.40
2018-01-19T07:09:01.638Z,1.40
2018-01-19T07:09:35.822Z,1.40
2018-01-19T07:10:09.502Z,1.40
2018-01-19T07:10:43.973Z,1.40
2018-01-19T07:11:17.638Z,1.40
2018-01-19T07:11:51.322Z,1.40
2018-01-19T07:12:24.985Z,1.40
2018-01-19T07:12:59.410Z,1.40
2018-01-19T07:13:33.110Z,1.40
2018-01-19T07:14:06.797Z,1.40
2018-01-19T07:14:40.454Z,1.40
2018-01-19T07:15:14.887Z,1.40
2018-01-19T07:15:48.565Z,1.40
2018-01-19T07:16:22.249Z,1.40
2018-01-19T07:16:56.694Z,1.40
2018-01-19T07:17:30.351Z,1.40
2018-01-19T07:18:04.787Z,1.40
2018-01-19T07:18:38.499Z,1.40
2018-01-19T07:19:12.168Z,1.40
2018-01-19T07:19:45.833Z,1.40
2018-01-19T07:20:19.506Z,1.50
2018-01-19T07:20:53.955Z,1.50
2018-01-19T07:21:27.622Z,1.50
2018-01-19T07:22:01.299Z,1.50
2018-01-19T07:22:35.741Z,1.50
2018-01-19T07:23:09.399Z,1.50
2018-01-19T07:23:43.100Z,1.50
2018-01-19T07:24:16.785Z,1.50
2018-01-19T07:24:50.706Z,1.60
2018-01-19T07:25:24.373Z,1.50
2018-01-19T07:25:58.054Z,1.60
2018-01-19T07:26:32.547Z,1.60
2018-01-19T07:27:06.998Z,1.60
2018-01-19T07:27:40.660Z,1.60
2018-01-19T07:28:15.109Z,1.60
2018-01-19T07:28:48.805Z,1.60
2018-01-19T07:29:22.288Z,1.60
2018-01-19T07:29:55.953Z,1.60
2018-01-19T07:30:29.618Z,1.60